Flight Track Log - Related Links

Times and Time Zones

All times are in EDT time to prevent confusion due to time zone crossing. See the EJM19 flight status page for this flight to view local times or setup timezone preferences in your user account.

Time Position Orientation Groundspeed Altitude Reporting Facility
EDT Latitude Longitude Course Direction KTS MPH feet Rate Location/Type
Sun 03:03:00 PM 23.1302 -81.5135 17° North  Level Estimated
Sun 03:04:00 PM 23.2370 -81.4764 18° North  Level Estimated
Sun 03:04:17 PM 23.0508 -81.5336 18° North 414 476 45,000  Level Miami Center
Sun 03:05:00 PM 23.3437 -81.4392 18° North  Level Estimated
Sun 03:05:17 PM 23.1586 -81.4925 19° North 403 464 45,000  Level Miami Center
Sun 03:06:00 PM 23.4505 -81.4019 18° North  Level Estimated
Sun 03:06:18 PM 23.2639 -81.4600 16° North 398 458 45,000  Level Miami Center
Sun 03:07:00 PM 23.5572 -81.3646 18° North  Level Estimated
Sun 03:07:18 PM 23.3736 -81.4233 17° North 398 458 45,000  Level Miami Center
Sun 03:08:00 PM 23.6639 -81.3272 18° North  Level Estimated
Sun 03:08:18 PM 23.4792 -81.3886 17° North 398 458 45,000  Level Miami Center
Sun 03:09:00 PM 23.7706 -81.2897 18° North  Level Estimated
Sun 03:09:18 PM 23.5864 -81.3606 13° North 398 458 45,000  Level Miami Center
Sun 03:10:18 PM 23.6992 -81.3600 360° North 398 458 45,000  Level Miami Center
Sun 03:11:18 PM 23.8164 -81.3553 North 405 466 45,000  Level Miami Center
Sun 03:12:17 PM 23.9311 -81.3569 359° North 405 466 45,000  Level Miami Center
Sun 03:13:17 PM 24.0458 -81.3589 359° North 405 466 45,000  Level Miami Center
Sun 03:14:18 PM 24.1586 -81.3583 360° North 405 466 45,000  Level Miami Center
Sun 03:15:18 PM 24.2694 -81.3556 North 400 460 45,000  Level Miami Center
Sun 03:16:18 PM 24.3844 -81.3572 359° North 405 466 45,000  Level Miami Center
Sun 03:17:18 PM 24.4992 -81.3569 360° North 405 466 45,000  Level Miami Center
Sun 03:18:18 PM 24.6119 -81.3564 360° North 400 460 45,000  Level Miami Center
Sun 03:19:18 PM 24.7247 -81.3558 360° North 400 460 45,000  Level Miami Center
Sun 03:20:18 PM 24.8361 -81.3394 North 400 460 45,000  Level Miami Center
Sun 03:21:18 PM 24.9472 -81.3206 North 405 466 45,000  Level Miami Center
Sun 03:22:18 PM 25.0606 -81.3039 North 405 466 45,000  Level Miami Center
Sun 03:23:17 PM 25.1697 -81.2850 North 405 466 45,000  Level Miami Center
Sun 03:24:18 PM 25.2767 -81.2683 North 405 466 45,000  Level Miami Center
Sun 03:25:18 PM 25.3900 -81.2494 North 405 466 45,000  Level Miami Center
Sun 03:26:18 PM 25.5033 -81.2306 North 405 466 45,000  Level Miami Center
Sun 03:27:18 PM 25.6144 -81.2136 North 410 472 45,000  Level Miami Center
Sun 03:28:18 PM 25.7275 -81.2086 North 410 472 45,000  Level Miami Center
Sun 03:29:18 PM 25.8444 -81.2128 358° North 405 466 45,000 -50 Level Miami Center
Sun 03:30:18 PM 25.9589 -81.2194 357° North 405 466 44,900 -303 Descending Miami Center
Sun 03:31:17 PM 26.0717 -81.2233 358° North 405 466 44,400 -500 Descending Miami Center
Sun 03:32:18 PM 26.1906 -81.2300 357° North 410 472 43,900 -496 Descending Miami Center
Sun 03:33:18 PM 26.3117 -81.2300 360° North 416 479 43,400 -450 Descending Miami Center
Sun 03:34:18 PM 26.4219 -81.2386 356° North 416 479 43,000 -200 Descending Miami Center
Sun 03:35:18 PM 26.5492 -81.2456 357° North 416 479 43,000  Level Miami Center
Sun 03:36:18 PM 26.6514 -81.2517 357° North 416 479 43,000  Level Miami Center
Sun 03:37:18 PM 26.7658 -81.2608 356° North 411 473 43,000  Level Miami Center
Sun 03:38:18 PM 26.8931 -81.2678 357° North 411 473 43,000  Level Miami Center
Sun 03:39:18 PM 27.0094 -81.2792 355° North 411 473 43,000  Level Miami Center
Sun 03:40:18 PM 27.1158 -81.2833 358° North 416 479 43,000  Level Miami Center
Sun 03:41:17 PM 27.2325 -81.2925 356° North 416 479 43,000  Level Miami Center
Sun 03:42:18 PM 27.3469 -81.3014 356° North 421 484 43,000  Level Miami Center
Sun 03:43:18 PM 27.4636 -81.3083 357° North 421 484 43,000  Level Miami Center
Sun 03:44:18 PM 27.5803 -81.3175 356° North 421 484 43,000  Level Miami Center
Sun 03:45:18 PM 27.6969 -81.3244 357° North 421 484 43,000  Level Miami Center
Sun 03:46:18 PM 27.8136 -81.3336 356° North 421 484 43,000  Level Miami Center
Sun 03:47:18 PM 27.9322 -81.3408 357° North 421 484 43,000  Level Miami Center
Sun 03:48:18 PM 28.0614 -81.3506 356° North 421 484 43,000  Level Miami Center
Sun 03:49:18 PM 28.1781 -81.3575 357° North 421 484 43,000  Level Miami Center
Sun 03:51:27 PM 28.4311 -81.3747 357° North 416 479 43,000  Level Jacksonville Center
Sun 03:52:27 PM 28.5481 -81.3872 355° North 416 479 43,000  Level Jacksonville Center
Sun 03:53:27 PM 28.6628 -81.3925 358° North 416 479 43,000  Level Jacksonville Center
Sun 03:54:27 PM 28.7778 -81.4003 357° North 416 479 43,000  Level Jacksonville Center
Sun 03:55:27 PM 28.8967 -81.4056 358° North 421 484 43,000  Level Jacksonville Center
Sun 03:56:27 PM 29.0097 -81.4158 355° North 421 484 43,000  Level Jacksonville Center
Sun 03:57:27 PM 29.1244 -81.4258 356° North 421 484 43,000  Level Jacksonville Center
Sun 03:58:27 PM 29.2372 -81.4339 356° North 416 479 43,000  Level Jacksonville Center
Sun 03:59:27 PM 29.3522 -81.4439 356° North 411 473 43,000  Level Jacksonville Center
Sun 04:00:27 PM 29.4650 -81.4494 358° North 406 467 43,000  Level Jacksonville Center
Sun 04:01:27 PM 29.5800 -81.4572 357° North 406 467 43,000  Level Jacksonville Center
Sun 04:02:27 PM 29.6947 -81.4556 North 406 467 43,000  Level Jacksonville Center
Sun 04:03:27 PM 29.8050 -81.4181 16° North 407 468 43,000  Level Jacksonville Center
Sun 04:04:27 PM 29.9089 -81.3711 21° North 402 463 43,000  Level Jacksonville Center
Sun 04:05:27 PM 30.0147 -81.3261 20° North 402 463 43,000  Level Jacksonville Center
Sun 04:06:27 PM 30.1228 -81.2789 21° North 402 463 43,000  Level Jacksonville Center
Sun 04:07:27 PM 30.2286 -81.2336 20° North 408 470 43,000  Level Jacksonville Center
Sun 04:08:27 PM 30.3344 -81.1861 21° North 408 470 43,000  Level Jacksonville Center
Sun 04:09:27 PM 30.4319 -81.1436 21° North 408 470 43,000  Level Jacksonville Center
Sun 04:10:27 PM 30.5400 -81.0981 20° North 408 470 43,000  Level Jacksonville Center
Sun 04:11:27 PM 30.6458 -81.0503 21° North 408 470 43,000  Level Jacksonville Center
Sun 04:12:27 PM 30.7514 -81.0047 20° North 408 470 43,000  Level Jacksonville Center
Sun 04:13:27 PM 30.8614 -80.9564 21° North 408 470 43,000  Level Jacksonville Center
Sun 04:14:27 PM 30.9694 -80.9108 20° North 414 476 43,000  Level Jacksonville Center
Sun 04:15:27 PM 31.0772 -80.8600 22° Northeast 414 476 43,000  Level Jacksonville Center
Sun 04:16:27 PM 31.1850 -80.8139 20° North 409 471 43,000  Level Jacksonville Center
Sun 04:17:27 PM 31.2947 -80.7678 20° North 409 471 43,000  Level Jacksonville Center
Sun 04:18:27 PM 31.4047 -80.7189 21° North 409 471 43,000  Level Jacksonville Center
Sun 04:19:27 PM 31.5122 -80.6678 22° Northeast 409 471 43,000  Level Jacksonville Center
Sun 04:20:27 PM 31.6303 -80.6136 21° North 409 471 43,000  Level Jacksonville Center
Sun 04:21:27 PM 31.7297 -80.5672 22° Northeast 409 471 43,000  Level Jacksonville Center
Sun 04:22:27 PM 31.8500 -80.5153 20° North 409 471 43,000  Level Jacksonville Center
Sun 04:23:27 PM 31.9594 -80.4636 22° Northeast 409 471 43,000  Level Jacksonville Center
Sun 04:24:27 PM 32.0672 -80.4164 20° North 409 471 43,000  Level Jacksonville Center
Sun 04:25:27 PM 32.1789 -80.3694 20° North 415 478 43,000  Level Jacksonville Center
Sun 04:26:27 PM 32.2864 -80.3172 22° Northeast 415 478 43,000  Level Jacksonville Center
Sun 04:27:27 PM 32.3961 -80.2672 21° North 415 478 43,000  Level Jacksonville Center
Sun 04:28:27 PM 32.5078 -80.2150 22° Northeast 415 478 43,000  Level Jacksonville Center
Sun 04:29:27 PM 32.6172 -80.1647 21° North 415 478 43,000  Level Jacksonville Center
Sun 04:30:27 PM 32.7333 -80.1267 15° North 420 483 43,000  Level Jacksonville Center
Sun 04:31:27 PM 32.8453 -80.0886 16° North 420 483 43,000  Level Jacksonville Center
Sun 04:32:27 PM 32.9611 -80.0478 16° North 420 483 43,000  Level Jacksonville Center
Sun 04:33:27 PM 33.0711 -80.0122 15° North 432 497 43,000  Level Jacksonville Center
Sun 04:34:27 PM 33.1872 -79.9811 13° North 432 497 43,000  Level Jacksonville Center
Sun 04:35:27 PM 33.3033 -79.9475 14° North 427 491 43,000  Level Jacksonville Center
Sun 04:36:27 PM 33.4172 -79.9139 14° North 427 491 43,000  Level Jacksonville Center
Sun 04:37:27 PM 33.5333 -79.8800 14° North 427 491 43,000  Level Jacksonville Center
Sun 04:38:27 PM 33.6514 -79.8436 14° North 427 491 43,000 -100 Level Jacksonville Center
Sun 04:39:27 PM 33.7672 -79.8047 16° North 432 497 42,800 -350 Descending Jacksonville Center
Sun 04:40:27 PM 33.8853 -79.7681 14° North 432 497 42,300 -500 Descending Jacksonville Center
Sun 04:41:27 PM 34.0033 -79.7286 15° North 432 497 41,800 -500 Descending Jacksonville Center
Sun 04:42:27 PM 34.1233 -79.6917 14° North 432 497 41,300 -325 Descending Jacksonville Center
Sun 04:44:13 PM 34.3319 -79.6056 19° North 431 496 40,900 -108 Descending Washington Center
Sun 04:45:14 PM 34.4444 -79.5458 24° Northeast 436 502 41,000 50 Climbing Washington Center
Sun 04:46:14 PM 34.5592 -79.4856 23° Northeast 441 507 41,000  Level Washington Center
Sun 04:47:15 PM 34.6717 -79.4228 25° Northeast 441 507 41,000  Level Washington Center
Sun 04:48:12 PM 34.7842 -79.3650 23° Northeast 441 507 41,000  Level Washington Center
Sun 04:49:13 PM 34.8947 -79.3017 25° Northeast 441 507 41,000  Level Washington Center
Sun 04:50:12 PM 35.0092 -79.2436 23° Northeast 441 507 41,000  Level Washington Center
Sun 04:51:13 PM 35.1236 -79.1828 23° Northeast 441 507 41,000  Level Washington Center
Sun 04:52:14 PM 35.2381 -79.1217 24° Northeast 447 514 41,000  Level Washington Center
Sun 04:53:12 PM 35.3547 -79.0606 23° Northeast 442 509 41,000  Level Washington Center
Sun 04:54:13 PM 35.4669 -78.9967 25° Northeast 447 514 41,000  Level Washington Center
Sun 04:55:13 PM 35.5836 -78.9353 23° Northeast 447 514 41,000  Level Washington Center
Sun 04:56:14 PM 35.7003 -78.8683 25° Northeast 447 514 41,000  Level Washington Center
Sun 04:57:12 PM 35.8167 -78.8067 23° Northeast 447 514 41,000  Level Washington Center
Sun 04:58:13 PM 35.9331 -78.7394 25° Northeast 447 514 41,000  Level Washington Center
Sun 04:59:14 PM 36.0347 -78.6819 25° Northeast 447 514 41,000  Level Washington Center
Sun 05:00:15 PM 36.1492 -78.6169 25° Northeast 447 514 41,000  Level Washington Center
Sun 05:01:13 PM 36.2422 -78.5664 24° Northeast 447 514 41,000  Level Washington Center
Sun 05:02:14 PM 36.3819 -78.4867 25° Northeast 447 514 41,000  Level Washington Center
Sun 05:03:14 PM 36.4981 -78.4239 23° Northeast 447 514 41,000  Level Washington Center
Sun 05:04:13 PM 36.6144 -78.3556 25° Northeast 447 514 41,000  Level Washington Center
Sun 05:05:14 PM 36.7286 -78.2897 25° Northeast 442 509 41,000 -149 Level Washington Center
Sun 05:06:14 PM 36.8450 -78.2236 24° Northeast 448 516 40,700 -1,525 Descending Washington Center
Sun 05:07:12 PM 36.9592 -78.1547 26° Northeast 448 516 38,000 -1,866 Descending Washington Center
Sun 05:08:13 PM 37.0731 -78.0936 23° Northeast 448 516 37,000 -1,091 Descending Washington Center
Sun 05:09:13 PM 37.1933 -78.0244 25° Northeast 448 516 35,800 -992 Descending Washington Center
Sun 05:10:14 PM 37.3114 -77.9578 24° Northeast 448 516 35,000 -397 Descending Washington Center
Sun 05:11:14 PM 37.4317 -77.8856 25° Northeast 453 521 35,000  Level Washington Center
Sun 05:12:15 PM 37.5500 -77.8078 28° Northeast 461 531 35,000  Level Washington Center
Sun 05:13:13 PM 37.6603 -77.7114 35° Northeast 472 543 35,000  Level Washington Center
Sun 05:14:15 PM 37.7706 -77.6119 35° Northeast 478 550 35,000  Level Washington Center
Sun 05:15:12 PM 37.8783 -77.5122 36° Northeast 478 550 35,000  Level Washington Center
Sun 05:16:12 PM 37.9864 -77.4122 36° Northeast 484 557 35,000  Level Washington Center
Sun 05:17:14 PM 38.0919 -77.3144 36° Northeast 478 550 35,000  Level Washington Center
Sun 05:18:14 PM 38.1997 -77.2167 35° Northeast 478 550 35,000  Level Washington Center
Sun 05:19:12 PM 38.3053 -77.1183 36° Northeast 478 550 35,000  Level Washington Center
Sun 05:20:13 PM 38.4108 -77.0200 36° Northeast 478 550 35,000  Level Washington Center
Sun 05:21:12 PM 38.5161 -76.9236 36° Northeast 478 550 35,000  Level Washington Center
Sun 05:22:14 PM 38.6194 -76.8247 37° Northeast 473 544 35,000 -150 Level Washington Center
Sun 05:23:12 PM 38.7203 -76.7253 38° Northeast 468 539 34,700 -1,361 Descending Washington Center
Sun 05:24:13 PM 38.8194 -76.6147 41° Northeast 463 533 32,300 -2,410 Descending Washington Center
Sun 05:25:14 PM 38.9161 -76.4986 43° Northeast 463 533 29,800 -2,231 Descending Washington Center
Sun 05:26:14 PM 39.0256 -76.3744 41° Northeast 468 539 27,800 -2,593 Descending Washington Center
Sun 05:27:12 PM 39.1158 -76.2683 42° Northeast 468 539 24,700 -1,932 Descending Washington Center
Sun 05:28:12 PM 39.2247 -76.1461 41° Northeast 468 539 24,000 -496 Descending Washington Center
Sun 05:29:13 PM 39.3272 -76.0422 38° Northeast 468 539 23,700 -1,809 Descending Washington Center
Sun 05:31:31 PM 39.5667 -75.8167 36° Northeast 443 510 18,000 -2,394 Descending Philadelphia TRACON
Sun 05:32:31 PM 39.6667 -75.7333 33° Northeast 413 475 15,800 -2,200 Descending Philadelphia TRACON
Sun 05:33:31 PM 39.7500 -75.6500 38° Northeast 402 463 13,600 -1,400 Descending Philadelphia TRACON
Sun 05:34:31 PM 39.8333 -75.5667 38° Northeast 393 452 13,000 -250 Descending Philadelphia TRACON
Sun 05:35:31 PM 39.9333 -75.4833 33° Northeast 388 447 13,100 50 Climbing Philadelphia TRACON
Sun 05:36:32 PM 40.0167 -75.4000 37° Northeast 390 449 13,100 -48 Level Philadelphia TRACON
Sun 05:37:37 PM 40.1167 -75.3000 37° Northeast 397 457 13,000 -192 Descending Philadelphia TRACON
Sun 05:38:37 PM 40.2000 -75.2333 31° Northeast 388 447 12,700 -1,391 Descending Philadelphia TRACON
Sun 05:40:08 PM 40.3333 -75.1333 30° Northeast 333 383 9,500 -2,066 Descending New York TRACON
Sun 05:41:08 PM 40.3833 -75.0500 52° Northeast 309 356 7,500 -1,333 Descending New York TRACON
Sun 05:42:14 PM 40.4333 -74.9500 57° Northeast 299 344 6,700 -1,000 Descending New York TRACON
Sun 05:43:14 PM 40.5000 -74.8667 44° Northeast 300 345 5,400 -1,350 Descending New York TRACON
Sun 05:44:14 PM 40.5500 -74.7833 52° Northeast 293 337 4,000 -700 Descending New York TRACON
Sun 05:45:14 PM 40.6000 -74.7167 45° Northeast 298 343 4,000  Level New York TRACON
Sun 05:46:13 PM 40.6833 -74.6667 24° Northeast 286 329 4,000 -101 Level New York TRACON
Sun 05:47:13 PM 40.7500 -74.6333 21° North 285 328 3,800 -496 Descending New York TRACON
Sun 05:48:14 PM 40.8333 -74.5833 24° Northeast 293 337 3,000 -397 Descending New York TRACON
Sun 05:49:14 PM 40.9000 -74.5333 30° Northeast 294 338 3,000  Level New York TRACON
Sun 05:50:14 PM 40.9500 -74.4667 45° Northeast 281 323 3,000  Level New York TRACON
Sun 05:51:08 PM 40.9833 -74.4000 56° Northeast 245 282 3,000  Level New York TRACON
Sun 05:52:14 PM 41.0333 -74.3167 51° Northeast 229 264 3,000  Level New York TRACON
Sun 05:53:08 PM 41.0667 -74.2667 49° Northeast 212 244 3,000  Level New York TRACON
Sun 05:54:14 PM 41.0833 -74.1833 75° East 219 252 3,000 -50 Level New York TRACON
Sun 05:55:08 PM 41.0667 -74.1167 108° East 202 232 2,900 -500 Descending New York TRACON
Sun 05:56:14 PM 41.0333 -74.0667 131° Southeast 184 212 2,000 -450 Descending New York TRACON
Sun 05:57:08 PM 41.0000 -74.0500 159° South 159 183 2,000 -53 Level New York TRACON
Sun 05:58:08 PM 40.9500 -74.0500 180° South 155 178 1,900 -429 Descending New York TRACON
Sun 05:59:14 PM 40.9167 -74.0500 180° South 144 166 1,100 -727 Descending New York TRACON

Login

Don't have an account? Register now (free) for customized features, flight alerts, and more!